Time;durP1;ratioP1;P1;durP2;ratioP2;P2;SDS_P1;SDS_P2;PMS_P1;PMS_P2;Temp;Humidity;BMP_temperature;BMP_pressure;BME280_temperature;BME280_humidity;BME280_pressure;Samples;Min_cycle;Max_cycle;Signal;HPM_P1;HPM_P2
2023/10/05 00:02:10;;;;;;;9.25;3.30;;;13.60;99.90;;;;;;5107535;27;20047;-76
2023/10/05 00:04:40;;;;;;;11.63;3.30;;;13.70;99.90;;;;;;5127039;27;20054;-76
2023/10/05 00:07:19;;;;;;;;;;;13.60;99.90;;;;;;5121745;27;20042;-76
2023/10/05 00:09:45;;;;;;;11.13;3.10;;;13.60;99.90;;;;;;5108527;27;20045;-76
2023/10/05 00:12:22;;;;;;;10.68;3.30;;;13.60;99.90;;;;;;5131118;27;20127;-75
2023/10/05 00:15:11;;;;;;;14.25;3.63;;;13.60;99.90;;;;;;5107084;27;20408;-76
2023/10/05 00:17:38;;;;;;;9.13;3.13;;;13.60;99.90;;;;;;5114024;27;20075;-76
2023/10/05 00:20:15;;;;;;;9.32;3.53;;;13.60;99.90;;;;;;5109072;27;20039;-76
2023/10/05 00:22:42;;;;;;;12.20;3.20;;;13.70;99.90;;;;;;5110312;27;20034;-76
2023/10/05 00:25:14;;;;;;;11.77;3.35;;;13.70;99.90;;;;;;5111962;27;20051;-76
2023/10/05 00:27:40;;;;;;;9.95;3.22;;;13.70;99.90;;;;;;5125740;27;20043;-75
2023/10/05 00:30:06;;;;;;;9.50;2.72;;;13.70;99.90;;;;;;5125584;27;20051;-76
2023/10/05 00:32:36;;;;;;;13.43;3.60;;;13.70;99.90;;;;;;5109572;27;20118;-76
2023/10/05 00:37:44;;;;;;;11.40;3.17;;;13.70;99.90;;;;;;5127869;27;20058;-75
2023/10/05 00:40:12;;;;;;;9.57;2.97;;;13.70;99.90;;;;;;5126019;27;20520;-76
2023/10/05 00:42:38;;;;;;;9.70;3.20;;;13.70;99.90;;;;;;5127413;27;20113;-76
2023/10/05 00:45:11;;;;;;;9.52;2.83;;;13.70;99.90;;;;;;5113416;27;20039;-75
2023/10/05 00:47:37;;;;;;;11.63;2.75;;;13.70;99.90;;;;;;5124066;27;20413;-76
2023/10/05 00:50:04;;;;;;;8.88;2.97;;;13.70;99.90;;;;;;5125717;27;20046;-76
2023/10/05 00:52:30;;;;;;;10.80;2.90;;;13.70;99.90;;;;;;5128042;27;20050;-76
2023/10/05 00:55:03;;;;;;;9.30;2.70;;;13.70;99.90;;;;;;5106266;27;20054;-76
2023/10/05 00:57:29;;;;;;;12.00;3.78;;;13.70;99.90;;;;;;5125833;27;20047;-85
2023/10/05 01:00:27;;;;;;;7.60;2.95;;;13.70;99.90;;;;;;5114735;27;20409;-85
2023/10/05 01:03:04;;;;;;;10.90;3.40;;;13.70;99.90;;;;;;5125716;27;20047;-84
2023/10/05 01:05:47;;;;;;;9.25;3.20;;;13.70;99.90;;;;;;5111157;27;20133;-84
2023/10/05 01:08:16;;;;;;;8.38;3.00;;;13.70;99.90;;;;;;5126306;27;20045;-85
2023/10/05 01:10:44;;;;;;;10.15;3.13;;;13.70;99.90;;;;;;5127646;27;20074;-85
2023/10/05 01:13:33;;;;;;;7.07;3.28;;;13.70;99.90;;;;;;5109967;27;20539;-83
2023/10/05 01:16:15;;;;;;;10.65;3.55;;;13.70;99.90;;;;;;5128699;27;20587;-85
2023/10/05 01:18:41;;;;;;;10.25;2.80;;;13.70;99.90;;;;;;5109759;27;20049;-85
2023/10/05 01:21:08;;;;;;;11.32;2.95;;;13.70;99.90;;;;;;5109406;27;20126;-85
2023/10/05 01:23:43;;;;;;;8.00;3.03;;;13.70;99.90;;;;;;5113407;27;20038;-84
2023/10/05 01:26:12;;;;;;;10.63;2.97;;;13.70;99.90;;;;;;5109917;27;20046;-83
2023/10/05 01:28:41;;;;;;;9.70;3.25;;;13.70;99.90;;;;;;5125943;27;20060;-84
2023/10/05 01:31:17;;;;;;;7.78;2.97;;;13.70;99.90;;;;;;5126418;27;20043;-84
2023/10/05 01:33:43;;;;;;;9.77;3.63;;;13.70;99.90;;;;;;5126854;27;20042;-84
2023/10/05 01:36:12;;;;;;;8.52;3.13;;;13.70;99.90;;;;;;5110784;27;20047;-83
2023/10/05 01:38:41;;;;;;;14.00;3.60;;;13.70;99.90;;;;;;5126651;27;20556;-85
2023/10/05 01:41:10;;;;;;;9.18;2.78;;;13.70;99.90;;;;;;5127880;27;20047;-84
2023/10/05 01:43:36;;;;;;;11.25;3.00;;;13.70;99.90;;;;;;5106825;27;20073;-84
2023/10/05 01:46:04;;;;;;;6.60;2.72;;;13.70;99.90;;;;;;5127545;27;20070;-83
2023/10/05 01:48:31;;;;;;;8.95;3.00;;;13.70;99.90;;;;;;5126724;27;20062;-85
2023/10/05 01:51:33;;;;;;;10.05;3.00;;;13.70;99.90;;;;;;5109119;27;20051;-84
2023/10/05 01:53:55;;;;;;;9.85;2.95;;;13.70;99.90;;;;;;5124146;27;20512;-84
2023/10/05 01:56:22;;;;;;;10.32;3.13;;;13.70;99.90;;;;;;5126378;27;20046;-86
2023/10/05 01:58:50;;;;;;;7.70;3.10;;;13.70;99.90;;;;;;5125924;27;20080;-86
2023/10/05 02:01:20;;;;;;;12.20;3.90;;;13.70;99.90;;;;;;5128001;27;20106;-85
2023/10/05 02:03:52;;;;;;;13.35;3.33;;;13.70;99.90;;;;;;5117275;27;20043;-86
2023/10/05 02:06:17;;;;;;;11.00;3.50;;;13.70;99.90;;;;;;5123348;27;20070;-86
2023/10/05 02:08:43;;;;;;;8.80;3.25;;;13.70;99.90;;;;;;5124506;27;20136;-76
2023/10/05 02:11:09;;;;;;;8.05;3.25;;;13.70;99.90;;;;;;5122661;27;20042;-76
2023/10/05 02:13:35;;;;;;;8.25;2.97;;;13.70;99.90;;;;;;5107307;27;20050;-76
2023/10/05 02:16:02;;;;;;;8.10;2.83;;;13.70;99.90;;;;;;5107418;27;20043;-75
2023/10/05 02:18:32;;;;;;;9.15;3.85;;;13.70;99.90;;;;;;5153213;27;20043;-76
2023/10/05 02:21:05;;;;;;;7.80;3.53;;;13.70;99.90;;;;;;5106438;27;20062;-76
2023/10/05 02:23:37;;;;;;;8.77;2.97;;;13.60;99.90;;;;;;5119446;27;20708;-76
2023/10/05 02:26:23;;;;;;;11.52;3.72;;;13.60;99.90;;;;;;5117212;27;20049;-76
2023/10/05 02:28:50;;;;;;;9.55;3.10;;;13.60;99.90;;;;;;5127667;27;20501;-76
2023/10/05 02:31:16;;;;;;;8.18;2.83;;;13.60;99.90;;;;;;5103880;27;20981;-75
2023/10/05 02:33:48;;;;;;;10.07;3.67;;;13.50;99.90;;;;;;5108798;27;20043;-75
2023/10/05 02:36:20;;;;;;;8.35;3.17;;;13.60;99.90;;;;;;5110330;27;20050;-76
2023/10/05 02:38:53;;;;;;;10.75;3.55;;;13.70;99.90;;;;;;5109768;27;20999;-75
2023/10/05 02:41:25;;;;;;;11.43;3.30;;;13.60;99.90;;;;;;5109626;27;20055;-75
2023/10/05 02:43:54;;;;;;;7.57;3.05;;;13.60;99.90;;;;;;5108525;27;20572;-76
2023/10/05 02:46:24;;;;;;;10.35;3.60;;;13.60;99.90;;;;;;5091340;27;20039;-76
2023/10/05 02:48:50;;;;;;;9.70;3.38;;;13.60;99.90;;;;;;5085581;27;20409;-76
2023/10/05 02:51:18;;;;;;;9.25;3.22;;;13.60;99.90;;;;;;5112056;27;20059;-76
2023/10/05 02:53:46;;;;;;;10.10;3.22;;;13.70;99.90;;;;;;5096284;27;20187;-76
2023/10/05 02:56:20;;;;;;;12.38;4.05;;;13.70;99.90;;;;;;5111368;27;20062;-75
2023/10/05 02:58:50;;;;;;;11.52;3.65;;;13.70;99.90;;;;;;5095296;27;21270;-76
2023/10/05 03:01:16;;;;;;;;;;;13.70;99.90;;;;;;5097224;27;20464;-75
2023/10/05 03:03:45;;;;;;;9.00;3.25;;;13.70;99.90;;;;;;5112846;27;19939;-75
2023/10/05 03:06:11;;;;;;;9.45;3.30;;;13.70;99.90;;;;;;5109302;27;20405;-76
2023/10/05 03:08:37;;;;;;;7.32;2.90;;;13.70;99.90;;;;;;5094125;27;20050;-75
2023/10/05 03:11:08;;;;;;;10.10;3.53;;;13.70;99.90;;;;;;5093992;27;20591;-76
2023/10/05 03:13:37;;;;;;;12.50;3.30;;;13.70;99.90;;;;;;5092759;27;20043;-76
2023/10/05 03:16:09;;;;;;;8.95;3.58;;;13.70;99.90;;;;;;5092634;27;20046;-76
2023/10/05 03:18:38;;;;;;;10.35;3.28;;;13.60;99.90;;;;;;5106356;27;20058;-77
2023/10/05 03:21:12;;;;;;;10.55;3.45;;;13.60;99.90;;;;;;5096076;27;20042;-76
2023/10/05 03:23:42;;;;;;;8.43;3.35;;;13.60;99.90;;;;;;5099955;27;20553;-76
2023/10/05 03:26:16;;;;;;;12.57;3.38;;;13.60;99.90;;;;;;5114997;27;20043;-76
2023/10/05 03:28:42;;;;;;;10.48;3.25;;;13.60;99.90;;;;;;5114432;27;20045;-76
2023/10/05 03:31:31;;;;;;;12.45;3.78;;;13.60;99.90;;;;;;5115186;27;20042;-76
2023/10/05 03:33:57;;;;;;;12.57;4.07;;;13.50;99.90;;;;;;5100152;27;20051;-85
2023/10/05 03:36:23;;;;;;;16.17;3.70;;;13.50;99.90;;;;;;5098530;27;20042;-85
2023/10/05 03:38:56;;;;;;;11.65;3.40;;;13.50;99.90;;;;;;5096409;27;20493;-85
2023/10/05 03:41:28;;;;;;;11.93;4.43;;;13.50;99.90;;;;;;5112643;27;20287;-85
2023/10/05 03:44:01;;;;;;;12.00;3.35;;;13.50;99.90;;;;;;5112498;27;20046;-76
2023/10/05 03:46:27;;;;;;;10.48;3.42;;;13.50;99.90;;;;;;5107400;27;20049;-76
2023/10/05 03:49:00;;;;;;;10.98;3.25;;;13.50;99.90;;;;;;5122372;27;20539;-76
2023/10/05 03:51:28;;;;;;;9.00;3.28;;;13.50;99.90;;;;;;5113293;27;20054;-76
2023/10/05 03:53:54;;;;;;;8.68;3.00;;;13.50;99.90;;;;;;5108062;27;20055;-76
2023/10/05 03:56:21;;;;;;;10.82;3.55;;;13.50;99.90;;;;;;5125527;27;20049;-76
2023/10/05 03:58:52;;;;;;;9.48;3.05;;;13.50;99.90;;;;;;5119994;27;20520;-76
2023/10/05 04:01:19;;;;;;;11.30;3.10;;;13.50;99.90;;;;;;5108586;27;20031;-76
2023/10/05 04:03:50;;;;;;;8.95;2.90;;;13.50;99.90;;;;;;5109316;27;20043;-76
2023/10/05 04:06:17;;;;;;;11.57;3.85;;;13.50;99.90;;;;;;5107658;27;20038;-75
2023/10/05 04:08:48;;;;;;;10.65;3.17;;;13.50;99.90;;;;;;5108483;27;20130;-77
2023/10/05 04:11:15;;;;;;;9.77;3.50;;;13.50;99.90;;;;;;5107992;27;20050;-76
2023/10/05 04:13:41;;;;;;;11.48;3.30;;;13.50;99.90;;;;;;5130296;27;20075;-76
2023/10/05 04:16:17;;;;;;;11.45;3.47;;;13.50;99.90;;;;;;5109877;27;20046;-84
2023/10/05 04:18:46;;;;;;;11.43;3.67;;;13.50;99.90;;;;;;5111842;27;20051;-85
2023/10/05 04:21:15;;;;;;;9.33;3.33;;;13.50;99.90;;;;;;5126088;27;20081;-84
2023/10/05 04:23:42;;;;;;;7.88;2.97;;;13.50;99.90;;;;;;5128181;27;20047;-87
2023/10/05 04:26:09;;;;;;;10.25;3.45;;;13.50;99.90;;;;;;5112912;27;20030;-85
2023/10/05 04:28:35;;;;;;;11.48;3.80;;;13.50;99.90;;;;;;5109372;27;20147;-84
2023/10/05 04:31:02;;;;;;;12.60;3.75;;;13.40;99.90;;;;;;5126945;27;20060;-85
2023/10/05 04:33:29;;;;;;;9.82;3.00;;;13.50;99.90;;;;;;5111528;27;20736;-85
2023/10/05 04:35:55;;;;;;;9.88;3.22;;;13.40;99.90;;;;;;5109397;27;20072;-85
2023/10/05 04:38:25;;;;;;;11.30;3.55;;;13.40;99.90;;;;;;5126453;27;20111;-85
2023/10/05 04:40:56;;;;;;;9.55;2.90;;;13.40;99.90;;;;;;5113649;27;20511;-85
2023/10/05 04:43:23;;;;;;;8.85;2.95;;;13.40;99.90;;;;;;5114192;27;20038;-85
2023/10/05 04:45:51;;;;;;;9.25;2.95;;;13.40;99.90;;;;;;5113141;27;20039;-85
2023/10/05 04:48:18;;;;;;;9.85;3.40;;;13.40;99.90;;;;;;5111948;27;20527;-84
2023/10/05 04:50:47;;;;;;;8.10;2.80;;;13.40;99.90;;;;;;5126837;27;20043;-85
2023/10/05 04:53:14;;;;;;;10.75;3.30;;;13.40;99.90;;;;;;5110437;27;20046;-86
2023/10/05 04:55:44;;;;;;;10.27;3.50;;;13.40;99.90;;;;;;5112255;27;20053;-85
2023/10/05 04:58:24;;;;;;;10.98;3.45;;;13.40;99.90;;;;;;5109981;27;20433;-86
2023/10/05 05:01:46;;;;;;;10.77;3.20;;;13.40;99.90;;;;;;5139498;27;20045;-85
2023/10/05 05:03:48;;;;;;;10.20;3.05;;;13.40;99.90;;;;;;5117024;27;20076;-85
2023/10/05 05:06:15;;;;;;;10.82;3.33;;;13.40;99.90;;;;;;5109317;27;20053;-85
2023/10/05 05:08:41;;;;;;;12.32;3.30;;;13.40;99.90;;;;;;5124685;27;20118;-86
2023/10/05 05:11:19;;;;;;;10.57;3.13;;;13.40;99.90;;;;;;5126930;27;20048;-85
2023/10/05 05:13:46;;;;;;;11.45;3.05;;;13.50;99.90;;;;;;5108862;27;20126;-85
2023/10/05 05:16:14;;;;;;;12.45;3.60;;;13.50;99.90;;;;;;5125977;27;20549;-85
2023/10/05 05:18:42;;;;;;;12.18;3.58;;;13.40;99.90;;;;;;5107304;27;20123;-85
2023/10/05 05:21:08;;;;;;;12.00;3.97;;;13.50;99.90;;;;;;5129715;27;20412;-84
2023/10/05 05:23:35;;;;;;;9.30;3.20;;;13.40;99.90;;;;;;5112527;27;20050;-86
2023/10/05 05:26:03;;;;;;;10.65;3.10;;;13.50;99.90;;;;;;5111377;27;20049;-85
2023/10/05 05:28:30;;;;;;;12.25;3.60;;;13.60;99.90;;;;;;5110005;27;20042;-86
2023/10/05 05:30:55;;;;;;;11.30;3.40;;;13.50;99.90;;;;;;5106942;27;20073;-76
2023/10/05 05:33:22;;;;;;;10.07;2.95;;;13.50;99.90;;;;;;5109789;27;20043;-75
2023/10/05 05:35:49;;;;;;;14.70;4.97;;;13.50;99.90;;;;;;5125888;27;20113;-76
2023/10/05 05:38:15;;;;;;;12.95;3.15;;;13.50;99.90;;;;;;5110847;27;20050;-76
2023/10/05 05:40:41;;;;;;;9.98;3.17;;;13.50;99.90;;;;;;5125510;27;20519;-77
2023/10/05 05:43:08;;;;;;;11.32;3.38;;;13.50;99.90;;;;;;5108612;27;20423;-76
2023/10/05 05:45:35;;;;;;;8.77;3.15;;;13.50;99.90;;;;;;5123047;27;20039;-77
2023/10/05 05:48:08;;;;;;;13.98;3.85;;;13.50;99.90;;;;;;5126034;27;20051;-76
2023/10/05 05:50:39;;;;;;;10.52;2.92;;;13.50;99.90;;;;;;5105204;27;20420;-77
2023/10/05 05:53:11;;;;;;;;;;;13.50;99.90;;;;;;5127430;27;20082;-76
2023/10/05 05:55:41;;;;;;;14.07;3.33;;;13.50;99.90;;;;;;5109657;27;19919;-77
2023/10/05 05:58:07;;;;;;;12.40;3.25;;;13.50;99.90;;;;;;5122614;27;20273;-76
2023/10/05 06:00:33;;;;;;;12.05;3.67;;;13.50;99.90;;;;;;5123544;27;20042;-77
2023/10/05 06:03:00;;;;;;;12.38;3.45;;;13.50;99.90;;;;;;5107251;27;20051;-77
2023/10/05 06:05:26;;;;;;;12.32;3.03;;;13.50;99.90;;;;;;5125079;27;20057;-76
2023/10/05 06:07:51;;;;;;;11.90;3.38;;;13.50;99.90;;;;;;5124977;27;20046;-74
2023/10/05 06:10:17;;;;;;;10.48;3.47;;;13.50;99.90;;;;;;5124208;27;20082;-75
2023/10/05 06:12:45;;;;;;;15.70;4.03;;;13.50;99.90;;;;;;5123312;27;20561;-75
2023/10/05 06:15:13;;;;;;;13.43;3.58;;;13.50;99.90;;;;;;5124277;27;20091;-74
2023/10/05 06:17:40;;;;;;;11.65;3.45;;;13.60;99.90;;;;;;5106518;27;20244;-74
2023/10/05 06:20:15;;;;;;;15.10;4.47;;;13.50;99.90;;;;;;5108771;27;20051;-74
2023/10/05 06:22:45;;;;;;;14.48;3.88;;;13.60;99.90;;;;;;5122746;27;20562;-74
2023/10/05 06:25:15;;;;;;;13.45;3.50;;;13.60;99.90;;;;;;5120074;27;20067;-74
2023/10/05 06:27:43;;;;;;;13.13;4.18;;;13.60;99.90;;;;;;5106452;27;20043;-75
2023/10/05 06:30:13;;;;;;;10.93;3.67;;;13.60;99.90;;;;;;5138004;27;21573;-74
2023/10/05 06:32:40;;;;;;;13.00;3.67;;;13.60;99.90;;;;;;5109467;27;20050;-78
2023/10/05 06:35:09;;;;;;;11.82;3.40;;;13.60;99.90;;;;;;5109970;27;20537;-78
2023/10/05 06:37:39;;;;;;;12.05;3.65;;;13.70;99.90;;;;;;5122284;27;20095;-78
2023/10/05 06:40:12;;;;;;;12.13;3.83;;;13.70;99.90;;;;;;5108237;27;20138;-78
2023/10/05 06:42:43;;;;;;;12.00;3.40;;;13.70;99.90;;;;;;5124207;27;20051;-78
2023/10/05 06:45:14;;;;;;;11.65;3.75;;;13.70;99.90;;;;;;5120299;27;20038;-77
2023/10/05 06:47:40;;;;;;;15.32;3.60;;;13.70;99.90;;;;;;5121994;27;20124;-78
2023/10/05 06:50:10;;;;;;;13.82;4.30;;;13.70;99.90;;;;;;5109359;27;20107;-78
2023/10/05 06:52:39;;;;;;;14.52;4.57;;;13.80;99.90;;;;;;5109351;27;20042;-78
2023/10/05 06:55:21;;;;;;;11.77;3.60;;;13.80;99.90;;;;;;5120377;27;20050;-78
2023/10/05 06:57:50;;;;;;;13.52;4.35;;;13.90;99.90;;;;;;5127654;27;20054;-78
2023/10/05 07:00:22;;;;;;;15.82;4.43;;;13.90;99.90;;;;;;5127815;27;20053;-78
2023/10/05 07:02:58;;;;;;;17.40;3.90;;;13.90;99.90;;;;;;5129244;27;20046;-77
2023/10/05 07:05:28;;;;;;;13.07;3.78;;;13.90;99.90;;;;;;5125961;27;20059;-78
2023/10/05 07:07:53;;;;;;;13.20;4.05;;;14.00;99.90;;;;;;5111426;27;20031;-78
2023/10/05 07:10:20;;;;;;;14.77;4.78;;;14.00;99.90;;;;;;5125941;27;20416;-78
2023/10/05 07:12:46;;;;;;;14.10;3.70;;;14.00;99.90;;;;;;5124906;27;20046;-78
2023/10/05 07:15:19;;;;;;;13.43;4.50;;;14.10;99.90;;;;;;5128453;27;20050;-78
2023/10/05 07:17:49;;;;;;;10.13;3.67;;;14.10;99.90;;;;;;5112556;27;20125;-79
2023/10/05 07:20:17;;;;;;;12.68;3.92;;;14.20;99.90;;;;;;5119890;27;20046;-78
2023/10/05 07:22:44;;;;;;;12.88;4.28;;;14.20;99.90;;;;;;5122663;27;20095;-78
2023/10/05 07:25:11;;;;;;;11.50;4.00;;;14.20;99.90;;;;;;5111176;27;20115;-78
2023/10/05 07:27:44;;;;;;;13.55;5.05;;;14.30;99.90;;;;;;5087617;27;20593;-78
2023/10/05 07:30:10;;;;;;;18.10;4.05;;;14.30;99.90;;;;;;5102459;27;20100;-78
2023/10/05 07:32:36;;;;;;;15.32;4.95;;;14.30;99.90;;;;;;5091401;27;20050;-79
2023/10/05 07:35:05;;;;;;;16.30;3.88;;;14.30;99.90;;;;;;5088373;27;20434;-78
2023/10/05 07:37:33;;;;;;;14.13;3.80;;;14.40;99.90;;;;;;5093043;27;20123;-78
2023/10/05 07:40:04;;;;;;;15.65;4.32;;;14.40;99.90;;;;;;5087578;27;20059;-78
2023/10/05 07:42:30;;;;;;;13.18;4.10;;;14.40;99.90;;;;;;5083665;27;20051;-78
2023/10/05 07:44:57;;;;;;;13.57;4.47;;;14.40;99.90;;;;;;5079370;27;20046;-78
2023/10/05 07:47:24;;;;;;;12.25;4.53;;;14.40;99.90;;;;;;5090413;27;21110;-78
2023/10/05 07:49:53;;;;;;;14.55;4.15;;;14.40;99.90;;;;;;5089236;27;20043;-78
2023/10/05 07:52:19;;;;;;;12.05;4.68;;;14.40;99.90;;;;;;5085305;27;20069;-78
2023/10/05 07:54:45;;;;;;;18.15;5.32;;;14.40;99.90;;;;;;5090027;27;20119;-78
2023/10/05 07:57:11;;;;;;;13.95;4.03;;;14.40;99.90;;;;;;5080526;27;20040;-78
2023/10/05 07:59:42;;;;;;;14.02;4.40;;;14.50;99.90;;;;;;5123789;27;20047;-78
2023/10/05 08:02:10;;;;;;;14.18;4.75;;;14.50;99.90;;;;;;5126836;27;20418;-78
2023/10/05 08:04:36;;;;;;;13.95;4.25;;;14.60;99.90;;;;;;5122558;27;20047;-78
2023/10/05 08:07:03;;;;;;;12.88;4.30;;;14.70;99.90;;;;;;5109047;27;20406;-77
2023/10/05 08:09:29;;;;;;;13.02;4.97;;;14.70;99.90;;;;;;5127592;27;20375;-78
2023/10/05 08:11:59;;;;;;;15.05;4.68;;;14.80;99.90;;;;;;5125356;27;20043;-77
2023/10/05 08:14:25;;;;;;;14.75;4.38;;;14.80;99.90;;;;;;5124524;27;20045;-77
2023/10/05 08:16:58;;;;;;;12.73;4.45;;;14.80;99.90;;;;;;5110090;27;20420;-77
2023/10/05 08:19:24;;;;;;;17.58;4.47;;;14.90;99.90;;;;;;5108685;27;20100;-77
2023/10/05 08:21:54;;;;;;;13.77;4.78;;;14.90;99.90;;;;;;5127400;27;20038;-77
2023/10/05 08:24:20;;;;;;;15.17;4.43;;;15.00;99.90;;;;;;5106358;27;20050;-78
2023/10/05 08:26:49;;;;;;;14.75;4.35;;;15.00;99.90;;;;;;5125682;27;20636;-78
2023/10/05 08:29:17;;;;;;;17.20;4.50;;;15.00;99.90;;;;;;5127357;27;20131;-78
2023/10/05 08:31:44;;;;;;;13.18;4.18;;;15.10;99.90;;;;;;5111364;27;20414;-78
2023/10/05 08:34:20;;;;;;;16.83;5.40;;;15.10;99.90;;;;;;5125203;27;20054;-78
2023/10/05 08:36:49;;;;;;;13.98;4.15;;;15.10;99.90;;;;;;5125987;27;20050;-78
2023/10/05 08:39:24;;;;;;;11.93;3.72;;;15.20;99.90;;;;;;5110099;27;20070;-78
2023/10/05 08:41:54;;;;;;;14.77;4.10;;;15.20;99.90;;;;;;5126800;27;20449;-78
2023/10/05 08:44:26;;;;;;;15.25;4.93;;;15.20;99.90;;;;;;5144755;27;20513;-78
2023/10/05 08:46:55;;;;;;;15.77;4.38;;;15.30;99.90;;;;;;5125263;27;20489;-78
2023/10/05 08:49:26;;;;;;;12.05;3.97;;;15.30;99.90;;;;;;5110197;27;20074;-78
2023/10/05 08:51:52;;;;;;;13.05;4.82;;;15.30;99.90;;;;;;5126322;27;20488;-78
2023/10/05 08:54:27;;;;;;;16.35;4.50;;;15.30;99.90;;;;;;5110133;27;20282;-77
2023/10/05 08:56:57;;;;;;;17.98;5.65;;;15.30;99.90;;;;;;5122365;27;20043;-78
2023/10/05 08:59:26;;;;;;;12.93;4.18;;;15.20;99.90;;;;;;5127190;27;20048;-77
2023/10/05 09:01:55;;;;;;;16.33;4.60;;;15.20;99.90;;;;;;5126303;27;20707;-77
2023/10/05 09:04:24;;;;;;;13.13;4.93;;;15.20;99.90;;;;;;5112491;27;20125;-77
2023/10/05 09:06:59;;;;;;;11.88;4.47;;;15.20;99.90;;;;;;5110307;27;20068;-76
2023/10/05 09:12:33;;;;;;;17.52;5.32;;;15.20;99.90;;;;;;5127299;27;20050;-77
2023/10/05 09:17:59;;;;;;;15.45;5.15;;;15.20;99.90;;;;;;5125331;27;20070;-76
2023/10/05 09:20:30;;;;;;;22.95;6.32;;;15.20;99.90;;;;;;5125793;27;20051;-77
2023/10/05 09:22:58;;;;;;;14.75;5.38;;;15.20;99.90;;;;;;5109459;27;20497;-76
2023/10/05 09:25:30;;;;;;;14.38;5.70;;;15.20;99.90;;;;;;5112032;27;20049;-76
2023/10/05 09:28:09;;;;;;;17.60;6.72;;;15.20;99.90;;;;;;5107964;27;20051;-77
2023/10/05 09:30:55;;;;;;;16.63;5.97;;;15.10;99.90;;;;;;5125053;27;20542;-77
2023/10/05 09:33:26;;;;;;;15.38;5.45;;;15.10;99.90;;;;;;5125239;27;20184;-77
2023/10/05 09:36:06;;;;;;;19.48;6.20;;;15.10;99.90;;;;;;5112879;27;20046;-76
2023/10/05 09:38:40;;;;;;;;;;;15.10;99.90;;;;;;5126015;27;20050;-77
2023/10/05 09:41:08;;;;;;;20.55;6.97;;;15.10;99.90;;;;;;5124759;27;20300;-77
2023/10/05 09:43:38;;;;;;;17.58;6.28;;;15.20;99.90;;;;;;5110501;27;20430;-78
2023/10/05 09:46:09;;;;;;;17.55;5.53;;;15.20;99.90;;;;;;5122446;27;20139;-78
2023/10/05 09:48:37;;;;;;;17.55;6.47;;;15.20;99.90;;;;;;5126827;27;20493;-78
2023/10/05 09:51:06;;;;;;;20.00;6.55;;;15.30;99.90;;;;;;5124013;27;20469;-78
2023/10/05 09:53:35;;;;;;;19.42;6.57;;;15.30;99.90;;;;;;5124982;27;20053;-78
2023/10/05 09:56:01;;;;;;;16.65;5.90;;;15.30;99.90;;;;;;5104989;27;20040;-78
2023/10/05 09:58:28;;;;;;;16.05;6.03;;;15.40;99.90;;;;;;5124736;27;20046;-78
2023/10/05 10:00:56;;;;;;;21.67;7.15;;;15.40;99.90;;;;;;5114358;27;20080;-78
2023/10/05 10:03:22;;;;;;;30.33;9.65;;;15.40;99.90;;;;;;5123935;27;20039;-78
2023/10/05 10:06:07;;;;;;;25.23;8.23;;;15.40;99.90;;;;;;5109603;27;20076;-79
2023/10/05 10:08:42;;;;;;;24.02;8.07;;;15.50;99.90;;;;;;5125750;27;20062;-80
2023/10/05 10:11:24;;;;;;;18.35;6.00;;;15.50;99.90;;;;;;5110879;27;20039;-79
2023/10/05 10:14:06;;;;;;;21.73;7.07;;;15.50;99.90;;;;;;5109191;27;20050;-80
2023/10/05 10:16:33;;;;;;;21.13;7.35;;;15.50;99.90;;;;;;5107702;27;20481;-81
2023/10/05 10:19:07;;;;;;;22.83;6.47;;;15.50;99.90;;;;;;5106631;27;20047;-82
2023/10/05 10:21:46;;;;;;;24.17;7.55;;;15.50;99.90;;;;;;5125289;27;20804;-81
2023/10/05 10:24:18;;;;;;;22.45;7.20;;;15.40;99.90;;;;;;5107946;27;20051;-82
2023/10/05 10:26:45;;;;;;;23.35;7.20;;;15.40;99.90;;;;;;5108358;27;20042;-80
2023/10/05 10:29:24;;;;;;;42.70;9.15;;;15.40;99.90;;;;;;5108776;27;20130;-76
2023/10/05 10:32:18;;;;;;;29.38;8.65;;;15.40;99.90;;;;;;5130151;27;20514;-77
2023/10/05 10:35:09;;;;;;;22.33;7.20;;;15.50;99.90;;;;;;5113584;27;20099;-80
2023/10/05 10:37:40;;;;;;;18.20;7.00;;;15.40;99.90;;;;;;5131702;27;20073;-82
2023/10/05 10:40:30;;;;;;;14.90;6.25;;;15.40;99.90;;;;;;5116778;27;20074;-83
2023/10/05 10:45:36;;;;;;;16.77;6.97;;;15.50;99.90;;;;;;5128755;27;20213;-83
2023/10/05 10:48:21;;;;;;;22.83;8.85;;;15.50;99.90;;;;;;5109999;27;20043;-83
2023/10/05 10:50:52;;;;;;;16.83;7.35;;;15.70;99.90;;;;;;5122760;27;20453;-82
2023/10/05 10:53:21;;;;;;;18.17;7.43;;;15.80;99.90;;;;;;5113213;27;20047;-82
2023/10/05 10:55:58;;;;;;;19.13;6.97;;;15.90;99.90;;;;;;5127614;27;20045;-82
2023/10/05 10:58:26;;;;;;;24.88;8.52;;;15.90;99.90;;;;;;5139581;27;20037;-82
2023/10/05 11:00:56;;;;;;;21.70;8.18;;;16.00;99.90;;;;;;5140174;27;20050;-81
2023/10/05 11:03:25;;;;;;;;;;;16.00;99.90;;;;;;5114229;27;20042;-82
2023/10/05 11:05:52;;;;;;;15.98;6.40;;;16.10;99.90;;;;;;5115309;27;20006;-82
2023/10/05 11:08:20;;;;;;;15.02;5.72;;;16.10;99.90;;;;;;5127231;27;20046;-82
2023/10/05 11:11:00;;;;;;;15.60;6.10;;;16.20;99.90;;;;;;5139484;27;20117;-81
2023/10/05 11:13:27;;;;;;;;;;;16.30;99.90;;;;;;5119924;27;20043;-80
2023/10/05 11:16:00;;;;;;;17.88;5.75;;;16.40;99.90;;;;;;5115549;27;20029;-81
2023/10/05 11:18:30;;;;;;;20.67;6.57;;;16.50;99.90;;;;;;5116134;27;20137;-81
2023/10/05 11:21:05;;;;;;;14.23;5.05;;;16.60;99.90;;;;;;5111687;27;20054;-81
2023/10/05 11:23:45;;;;;;;15.85;5.38;;;16.60;99.90;;;;;;5132112;27;20042;-81
2023/10/05 11:26:18;;;;;;;14.38;4.63;;;16.50;99.90;;;;;;5124177;27;20485;-81
2023/10/05 11:28:49;;;;;;;9.80;3.92;;;16.40;99.90;;;;;;5111374;27;20415;-81
2023/10/05 11:31:21;;;;;;;17.42;5.50;;;16.40;99.90;;;;;;5156472;27;20050;-80
2023/10/05 11:33:49;;;;;;;13.18;4.55;;;16.40;99.90;;;;;;5108017;27;20569;-81
2023/10/05 11:36:17;;;;;;;13.65;4.30;;;16.40;99.90;;;;;;5127495;27;20114;-83
2023/10/05 11:38:48;;;;;;;12.15;5.18;;;16.50;99.90;;;;;;5112264;27;20502;-83
2023/10/05 11:41:23;;;;;;;12.55;4.65;;;16.60;99.90;;;;;;5128785;27;20126;-82
2023/10/05 11:43:53;;;;;;;15.35;5.07;;;16.80;99.90;;;;;;5112355;27;20050;-83
2023/10/05 11:46:26;;;;;;;18.33;5.85;;;16.90;99.90;;;;;;5118039;27;20039;-82
2023/10/05 11:48:55;;;;;;;10.93;4.70;;;16.90;99.90;;;;;;5126813;27;20051;-82
2023/10/05 11:51:41;;;;;;;17.17;6.00;;;16.90;99.90;;;;;;5125890;27;20058;-82
2023/10/05 11:54:10;;;;;;;14.13;4.95;;;16.90;99.90;;;;;;5114060;27;20050;-82
2023/10/05 11:56:38;;;;;;;16.00;4.70;;;17.00;99.90;;;;;;5128050;27;20146;-82
2023/10/05 11:59:07;;;;;;;12.18;4.22;;;17.00;99.90;;;;;;5126030;27;20090;-82
2023/10/05 12:01:33;;;;;;;15.38;4.68;;;17.10;99.90;;;;;;5108430;27;20041;-82
2023/10/05 12:04:03;;;;;;;16.77;4.50;;;17.10;99.90;;;;;;5130478;27;20049;-82
2023/10/05 12:06:30;;;;;;;12.70;4.57;;;17.20;99.90;;;;;;5125363;27;20269;-82
2023/10/05 12:09:27;;;;;;;11.98;4.93;;;17.30;99.90;;;;;;5110618;27;20043;-82
2023/10/05 12:11:58;;;;;;;16.77;5.40;;;17.30;99.90;;;;;;5113796;27;20505;-82
2023/10/05 12:14:27;;;;;;;15.07;4.75;;;17.50;99.90;;;;;;5108065;27;20484;-82
2023/10/05 12:16:56;;;;;;;13.43;4.85;;;17.50;99.90;;;;;;5111271;27;20043;-82
2023/10/05 12:19:33;;;;;;;10.10;3.47;;;17.60;99.90;;;;;;5126086;27;20046;-82
2023/10/05 12:22:01;;;;;;;14.52;4.18;;;17.70;99.90;;;;;;5110898;27;20313;-82
2023/10/05 12:24:28;;;;;;;12.88;4.50;;;17.70;99.90;;;;;;5110191;27;20122;-81
2023/10/05 12:26:57;;;;;;;11.73;3.60;;;17.70;99.90;;;;;;5128542;27;20035;-82
2023/10/05 12:29:24;;;;;;;12.23;3.60;;;17.80;99.90;;;;;;5112483;27;20570;-81
2023/10/05 12:31:50;;;;;;;11.55;3.70;;;17.80;99.90;;;;;;5109424;27;20504;-81
2023/10/05 12:34:16;;;;;;;11.52;3.50;;;17.80;99.90;;;;;;5120996;27;20053;-81
2023/10/05 12:36:48;;;;;;;13.30;3.35;;;17.80;99.90;;;;;;5127702;27;20078;-82
2023/10/05 12:39:15;;;;;;;12.50;3.58;;;17.80;99.90;;;;;;5111481;27;20058;-81
2023/10/05 12:41:40;;;;;;;11.00;3.95;;;17.80;99.90;;;;;;5112879;27;20054;-81
2023/10/05 12:44:09;;;;;;;10.55;3.47;;;17.70;99.90;;;;;;5109593;27;20081;-81
2023/10/05 12:46:39;;;;;;;12.88;3.83;;;17.60;99.90;;;;;;5111369;27;20386;-81
2023/10/05 12:49:07;;;;;;;8.48;3.30;;;17.60;99.90;;;;;;5110629;27;20466;-81
2023/10/05 12:51:37;;;;;;;10.10;3.03;;;17.70;99.90;;;;;;5129335;27;20078;-81
2023/10/05 12:54:08;;;;;;;11.60;4.05;;;17.80;99.90;;;;;;5123879;27;20070;-80
2023/10/05 12:56:40;;;;;;;10.80;3.05;;;17.80;99.90;;;;;;5107726;27;20046;-80
2023/10/05 12:59:07;;;;;;;8.25;2.90;;;17.90;99.90;;;;;;5131316;27;20092;-79
2023/10/05 13:01:41;;;;;;;9.15;3.00;;;17.90;99.90;;;;;;5125153;27;20042;-79
2023/10/05 13:04:15;;;;;;;9.35;3.08;;;18.00;99.90;;;;;;5123935;27;20047;-80
2023/10/05 13:06:41;;;;;;;9.70;3.13;;;18.00;99.90;;;;;;5109623;27;20657;-80
2023/10/05 13:09:11;;;;;;;10.95;2.75;;;18.10;99.90;;;;;;5126605;27;20135;-80